Time;durP1;ratioP1;P1;durP2;ratioP2;P2;SDS_P1;SDS_P2;PMS_P1;PMS_P2;Temp;Humidity;BMP_temperature;BMP_pressure;BME280_temperature;BME280_humidity;BME280_pressure;Samples;Min_cycle;Max_cycle;Signal;HPM_P1;HPM_P2
2023/09/21 00:01:20;;;;;;;5.55;2.22;;;;;;;17.05;100.00;99867.69;5051287;28;20580;-57
2023/09/21 00:03:49;;;;;;;6.07;2.10;;;;;;;17.06;100.00;99870.16;5052245;28;20056;-55
2023/09/21 00:06:18;;;;;;;4.38;1.83;;;;;;;17.03;100.00;99873.16;5051133;28;20060;-55
2023/09/21 00:08:49;;;;;;;4.78;1.80;;;;;;;17.04;100.00;99866.84;5051883;28;20102;-56
2023/09/21 00:11:18;;;;;;;4.43;2.08;;;;;;;16.99;100.00;99855.06;5050093;28;20064;-56
2023/09/21 00:13:47;;;;;;;6.15;1.88;;;;;;;16.93;100.00;99851.22;5051919;28;20052;-56
2023/09/21 00:16:18;;;;;;;5.22;2.10;;;;;;;16.96;100.00;99844.75;5051424;28;20429;-57
2023/09/21 00:18:46;;;;;;;5.35;1.80;;;;;;;16.96;100.00;99840.31;5050104;28;20535;-56
2023/09/21 00:21:16;;;;;;;5.60;2.10;;;;;;;16.97;100.00;99838.47;5050379;28;20085;-56
2023/09/21 00:23:47;;;;;;;4.53;1.83;;;;;;;16.97;100.00;99841.94;5051602;28;20068;-56
2023/09/21 00:26:17;;;;;;;4.38;1.98;;;;;;;16.91;100.00;99832.00;5052961;28;20488;-56
2023/09/21 00:28:46;;;;;;;4.20;1.67;;;;;;;16.89;100.00;99823.34;5051335;28;20128;-56
2023/09/21 00:31:15;;;;;;;6.30;2.35;;;;;;;16.98;100.00;99822.34;5050601;28;20048;-56
2023/09/21 00:33:43;;;;;;;5.90;2.03;;;;;;;16.93;100.00;99815.88;5051786;28;20053;-56
2023/09/21 00:36:13;;;;;;;4.53;1.90;;;;;;;16.95;100.00;99811.25;5050441;28;20107;-56
2023/09/21 00:38:42;;;;;;;6.60;2.03;;;;;;;16.98;100.00;99806.44;5051654;28;20041;-57
2023/09/21 00:41:10;;;;;;;6.53;2.28;;;;;;;17.07;100.00;99799.28;5049379;28;20056;-56
2023/09/21 00:43:41;;;;;;;3.28;1.65;;;;;;;17.12;100.00;99798.78;5052825;28;20048;-55
2023/09/21 00:46:10;;;;;;;5.35;1.70;;;;;;;17.03;100.00;99796.13;5054123;28;20581;-56
2023/09/21 00:48:42;;;;;;;5.22;2.03;;;;;;;17.03;100.00;99795.31;5051585;28;20045;-55
2023/09/21 00:51:13;;;;;;;6.25;1.80;;;;;;;17.00;100.00;99780.53;5050137;28;20052;-55
2023/09/21 00:53:44;;;;;;;5.35;2.00;;;;;;;16.96;100.00;99781.88;5051130;28;20519;-57
2023/09/21 00:56:16;;;;;;;5.03;1.50;;;;;;;17.05;100.00;99780.03;5048157;28;20056;-55
2023/09/21 00:58:50;;;;;;;6.35;2.25;;;;;;;17.03;100.00;99774.88;5051290;28;20503;-57
2023/09/21 01:01:21;;;;;;;3.63;1.70;;;;;;;17.03;100.00;99769.56;5050509;28;20411;-55
2023/09/21 01:03:52;;;;;;;4.97;1.90;;;;;;;17.05;100.00;99772.88;5050891;28;20095;-56
2023/09/21 01:06:20;;;;;;;5.15;1.98;;;;;;;17.12;100.00;99772.22;5052273;28;20443;-55
2023/09/21 01:08:49;;;;;;;6.88;1.60;;;;;;;17.09;100.00;99764.59;5053835;28;20045;-55
2023/09/21 01:11:19;;;;;;;4.38;1.92;;;;;;;17.05;100.00;99767.56;5053388;28;20041;-55
2023/09/21 01:13:52;;;;;;;;;;;;;;;17.04;100.00;99765.09;5051090;28;20429;-56
2023/09/21 01:16:23;;;;;;;5.97;1.70;;;;;;;16.96;100.00;99762.44;5050491;28;19963;-54
2023/09/21 01:18:53;;;;;;;7.35;2.10;;;;;;;16.92;100.00;99759.31;5050559;28;20385;-56
2023/09/21 01:21:34;;;;;;;6.03;1.90;;;;;;;16.96;100.00;99750.00;5050131;28;20064;-56
2023/09/21 01:24:05;;;;;;;4.40;1.98;;;;;;;16.87;100.00;99741.16;5050075;28;20052;-55
2023/09/21 01:26:34;;;;;;;5.22;2.00;;;;;;;16.89;100.00;99751.66;5048695;28;20045;-55
2023/09/21 01:29:02;;;;;;;5.05;1.90;;;;;;;16.87;100.00;99741.16;5050137;28;20041;-55
2023/09/21 01:31:30;;;;;;;5.15;2.03;;;;;;;16.92;100.00;99737.22;5048767;28;20049;-55
2023/09/21 01:33:59;;;;;;;5.32;1.77;;;;;;;16.94;100.00;99740.53;5050105;28;20055;-56
2023/09/21 01:36:28;;;;;;;3.65;1.70;;;;;;;16.90;100.00;99742.69;5049607;28;20519;-55
2023/09/21 01:38:56;;;;;;;5.63;1.92;;;;;;;16.86;100.00;99738.69;5052420;28;20049;-55
2023/09/21 01:41:26;;;;;;;5.40;1.88;;;;;;;16.87;100.00;99737.69;5048335;28;20798;-56
2023/09/21 01:43:54;;;;;;;3.55;1.70;;;;;;;16.78;100.00;99736.03;5051378;28;20045;-55
2023/09/21 01:46:24;;;;;;;4.25;1.73;;;;;;;16.77;100.00;99734.38;5052775;28;20396;-54
2023/09/21 01:48:53;;;;;;;5.00;1.95;;;;;;;16.83;100.00;99725.75;5052664;28;20049;-56
2023/09/21 01:51:21;;;;;;;4.70;1.77;;;;;;;16.84;100.00;99730.91;5049651;28;20132;-56
2023/09/21 01:53:49;;;;;;;9.60;2.10;;;;;;;16.77;100.00;99719.28;5049546;28;20045;-57
2023/09/21 01:56:18;;;;;;;7.32;2.20;;;;;;;16.80;100.00;99723.44;5047387;28;20049;-56
2023/09/21 01:58:49;;;;;;;4.68;1.75;;;;;;;16.86;100.00;99717.44;5048446;28;20063;-56
2023/09/21 02:01:18;;;;;;;5.85;1.95;;;;;;;16.90;100.00;99710.84;5049354;28;20045;-53
2023/09/21 02:03:47;;;;;;;3.90;2.10;;;;;;;16.96;100.00;99715.47;5049104;28;20037;-54
2023/09/21 02:06:15;;;;;;;3.03;1.80;;;;;;;16.84;100.00;99704.34;5049244;28;20049;-54
2023/09/21 02:08:44;;;;;;;5.70;2.10;;;;;;;16.87;100.00;99695.22;5049995;28;20486;-52
2023/09/21 02:11:13;;;;;;;6.88;2.45;;;;;;;16.94;100.00;99692.75;5047258;28;20574;-52
2023/09/21 02:13:42;;;;;;;4.57;1.77;;;;;;;16.96;100.00;99696.91;5049549;28;20411;-54
2023/09/21 02:16:14;;;;;;;4.45;1.80;;;;;;;17.04;100.00;99693.38;5048096;28;20057;-54
2023/09/21 02:18:44;;;;;;;5.25;2.03;;;;;;;16.93;100.00;99691.91;5050502;28;20051;-54
2023/09/21 02:21:17;;;;;;;3.65;1.75;;;;;;;17.01;100.00;99681.25;5052206;28;20052;-55
2023/09/21 02:23:45;;;;;;;4.60;1.92;;;;;;;16.96;100.00;99685.44;5052169;28;20124;-55
2023/09/21 02:26:14;;;;;;;5.65;2.05;;;;;;;16.94;100.00;99680.28;5052093;28;20049;-55
2023/09/21 02:28:43;;;;;;;5.43;1.85;;;;;;;17.01;100.00;99691.06;5052206;28;20091;-53
2023/09/21 02:31:12;;;;;;;5.32;1.83;;;;;;;16.99;100.00;99696.53;5051379;28;20048;-56
2023/09/21 02:33:42;;;;;;;6.25;1.85;;;;;;;16.94;100.00;99690.09;5048211;28;20107;-54
2023/09/21 02:36:17;;;;;;;6.20;2.00;;;;;;;16.92;100.00;99684.97;5048756;28;20053;-52
2023/09/21 02:38:46;;;;;;;6.32;2.22;;;;;;;16.92;100.00;99684.97;5051435;28;20488;-54
2023/09/21 02:41:17;;;;;;;5.43;1.92;;;;;;;16.98;100.00;99678.94;5051641;28;20595;-55
2023/09/21 02:43:46;;;;;;;4.10;2.00;;;;;;;17.04;100.00;99677.44;5049095;28;20048;-54
2023/09/21 02:46:16;;;;;;;6.10;1.80;;;;;;;17.14;100.00;99675.44;5048198;28;20495;-54
2023/09/21 02:48:44;;;;;;;4.13;1.73;;;;;;;17.15;100.00;99674.44;5049443;28;20132;-54
2023/09/21 02:51:14;;;;;;;5.65;2.08;;;;;;;17.11;100.00;99669.63;5048559;28;20132;-53
2023/09/21 02:53:43;;;;;;;5.07;1.67;;;;;;;17.25;100.00;99671.56;5049003;28;20037;-53
2023/09/21 02:56:12;;;;;;;4.70;1.95;;;;;;;17.23;100.00;99677.06;5047045;28;20044;-54
2023/09/21 02:58:41;;;;;;;6.03;1.80;;;;;;;17.16;100.00;99665.44;5048638;28;20136;-53
2023/09/21 03:01:11;;;;;;;4.80;2.28;;;;;;;17.30;100.00;99671.03;5048692;28;20143;-54
2023/09/21 03:03:44;;;;;;;2.58;1.45;;;;;;;17.35;100.00;99666.88;5049036;28;20450;-53
2023/09/21 03:06:17;;;;;;;4.38;1.60;;;;;;;17.40;100.00;99653.91;5048489;28;20052;-53
2023/09/21 03:08:49;;;;;;;5.15;1.60;;;;;;;17.39;100.00;99652.22;5048648;28;20095;-54
2023/09/21 03:11:18;;;;;;;5.90;1.88;;;;;;;17.42;100.00;99661.69;5046908;28;20804;-53
2023/09/21 03:13:46;;;;;;;4.07;1.70;;;;;;;17.49;100.00;99652.03;5048608;28;20041;-53
2023/09/21 03:16:16;;;;;;;6.93;1.90;;;;;;;17.48;100.00;99647.72;5047975;28;20135;-53
2023/09/21 03:18:49;;;;;;;5.05;1.90;;;;;;;17.57;100.00;99651.16;5048799;28;20075;-53
2023/09/21 03:21:17;;;;;;;3.78;1.65;;;;;;;17.65;100.00;99648.44;5048319;28;20068;-54
2023/09/21 03:23:46;;;;;;;4.35;1.60;;;;;;;17.60;100.00;99644.66;5048690;28;20048;-52
2023/09/21 03:26:17;;;;;;;4.55;1.48;;;;;;;17.69;100.00;99643.63;5046883;28;20056;-54
2023/09/21 03:28:47;;;;;;;3.40;1.45;;;;;;;17.86;100.00;99633.69;5048594;28;20083;-55
2023/09/21 03:31:15;;;;;;;4.35;1.90;;;;;;;17.72;100.00;99641.44;5048504;28;20439;-55
2023/09/21 03:33:46;;;;;;;4.45;1.52;;;;;;;17.62;100.00;99634.69;5048038;28;20077;-54
2023/09/21 03:36:16;;;;;;;3.70;1.70;;;;;;;17.69;100.00;99633.81;5047466;28;20057;-56
2023/09/21 03:38:47;;;;;;;4.65;1.88;;;;;;;17.68;100.00;99637.47;5047184;28;20057;-54
2023/09/21 03:41:16;;;;;;;5.57;1.85;;;;;;;17.84;100.00;99638.38;5046599;28;20049;-55
2023/09/21 03:43:44;;;;;;;5.75;1.80;;;;;;;17.88;100.00;99634.34;5048411;28;20160;-54
2023/09/21 03:46:12;;;;;;;4.53;1.70;;;;;;;17.82;100.00;99643.03;5048251;28;20203;-56
2023/09/21 03:48:40;;;;;;;4.85;1.65;;;;;;;17.85;100.00;99637.38;5048430;28;20080;-55
2023/09/21 03:51:10;;;;;;;4.63;1.90;;;;;;;17.86;100.00;99631.03;5046862;28;20053;-54
2023/09/21 03:53:40;;;;;;;7.03;2.13;;;;;;;17.84;100.00;99639.19;5047946;28;20041;-56
2023/09/21 03:56:08;;;;;;;4.75;1.77;;;;;;;17.84;100.00;99646.34;5046571;28;20060;-56
2023/09/21 03:58:36;;;;;;;6.40;1.70;;;;;;;17.81;100.00;99636.06;5046466;28;20049;-56
2023/09/21 04:01:09;;;;;;;2.83;1.52;;;;;;;17.83;100.00;99621.59;5047900;28;20460;-56
2023/09/21 04:03:37;;;;;;;4.32;1.90;;;;;;;17.86;100.00;99623.91;5048127;28;20068;-56
2023/09/21 04:06:06;;;;;;;5.35;1.90;;;;;;;17.78;100.00;99621.31;5047766;28;20498;-55
2023/09/21 04:08:35;;;;;;;4.65;1.90;;;;;;;17.73;100.00;99616.50;5047575;28;20051;-57
2023/09/21 04:11:04;;;;;;;5.85;1.90;;;;;;;17.88;100.00;99626.38;5046633;28;20547;-56
2023/09/21 04:13:34;;;;;;;4.93;1.83;;;;;;;17.86;100.00;99621.25;5046733;28;20041;-56
2023/09/21 04:16:06;;;;;;;4.38;1.92;;;;;;;17.82;100.00;99619.09;5047964;28;20539;-55
2023/09/21 04:18:34;;;;;;;5.00;1.80;;;;;;;17.85;100.00;99621.41;5047721;28;20057;-53
2023/09/21 04:21:08;;;;;;;4.22;1.85;;;;;;;17.82;100.00;99611.13;5047751;28;20060;-54
2023/09/21 04:23:47;;;;;;;4.65;2.05;;;;;;;17.76;100.00;99611.84;5047902;28;20071;-54
2023/09/21 04:26:19;;;;;;;6.43;2.10;;;;;;;17.78;100.00;99607.16;5047118;28;20049;-56
2023/09/21 04:28:49;;;;;;;3.83;1.80;;;;;;;17.78;100.00;99607.16;5051402;28;20073;-54
2023/09/21 04:31:18;;;;;;;7.07;2.58;;;;;;;17.77;100.00;99608.19;5051355;28;20048;-54
2023/09/21 04:33:47;;;;;;;4.78;1.52;;;;;;;17.91;100.00;99604.75;5051642;28;20136;-54
2023/09/21 04:36:15;;;;;;;4.15;1.60;;;;;;;17.79;100.00;99606.97;5051050;28;20064;-54
2023/09/21 04:38:44;;;;;;;5.03;1.83;;;;;;;17.70;100.00;99614.19;5051323;28;20063;-54
2023/09/21 04:41:15;;;;;;;4.80;1.65;;;;;;;17.76;100.00;99612.66;5049128;28;20131;-55
2023/09/21 04:43:45;;;;;;;5.72;1.88;;;;;;;17.77;100.00;99601.03;5051316;28;20045;-55
2023/09/21 04:46:13;;;;;;;3.88;1.45;;;;;;;17.84;100.00;99598.47;5050561;28;20053;-56
2023/09/21 04:48:42;;;;;;;4.07;1.73;;;;;;;17.96;100.00;99615.72;5051482;28;20041;-56
2023/09/21 04:51:14;;;;;;;4.68;1.90;;;;;;;17.87;100.00;99619.41;5050586;28;20488;-54
2023/09/21 04:53:42;;;;;;;4.40;1.73;;;;;;;17.90;100.00;99613.72;5051323;28;20064;-52
2023/09/21 04:56:11;;;;;;;4.43;2.13;;;;;;;17.90;100.00;99616.38;5049228;28;20500;-56
2023/09/21 04:58:40;;;;;;;5.93;2.15;;;;;;;17.90;100.00;99621.69;5050820;28;20041;-54
2023/09/21 05:01:10;;;;;;;6.40;1.92;;;;;;;17.87;100.00;99616.75;5050343;28;20076;-53
2023/09/21 05:03:39;;;;;;;4.55;1.63;;;;;;;17.90;100.00;99614.56;5051209;28;20045;-54
2023/09/21 05:06:07;;;;;;;4.40;1.83;;;;;;;17.96;100.00;99618.38;5050272;28;20055;-54
2023/09/21 05:08:37;;;;;;;5.28;2.05;;;;;;;17.90;100.00;99617.22;5050632;28;20407;-53
2023/09/21 05:11:05;;;;;;;4.90;1.85;;;;;;;17.89;100.00;99610.25;5048874;28;20069;-54
2023/09/21 05:13:33;;;;;;;4.15;1.80;;;;;;;17.85;100.00;99605.47;5050535;28;20045;-55
2023/09/21 05:16:02;;;;;;;3.60;1.60;;;;;;;17.81;100.00;99598.84;5050103;28;20473;-53
2023/09/21 05:18:31;;;;;;;5.47;1.98;;;;;;;17.84;100.00;99596.63;5050488;28;20768;-54
2023/09/21 05:21:01;;;;;;;5.88;1.80;;;;;;;17.82;100.00;99601.31;5049417;28;20029;-54
2023/09/21 05:23:29;;;;;;;5.18;1.88;;;;;;;17.81;100.00;99596.19;5049867;28;20036;-56
2023/09/21 05:25:57;;;;;;;5.70;1.88;;;;;;;17.75;100.00;99605.69;5048804;28;20049;-55
2023/09/21 05:28:25;;;;;;;4.13;1.90;;;;;;;17.78;100.00;99599.19;5050396;28;20055;-55
2023/09/21 05:30:54;;;;;;;6.30;1.73;;;;;;;17.87;100.00;99603.44;5048902;28;20087;-54
2023/09/21 05:33:23;;;;;;;3.40;1.88;;;;;;;17.86;100.00;99604.44;5050347;28;20073;-54
2023/09/21 05:35:53;;;;;;;4.65;1.95;;;;;;;17.85;100.00;99605.47;5049568;28;20049;-52
2023/09/21 05:38:22;;;;;;;4.47;2.00;;;;;;;17.87;100.00;99600.78;5048869;28;20045;-55
2023/09/21 05:40:50;;;;;;;3.50;1.50;;;;;;;17.82;100.00;99604.00;5048876;28;20041;-54
2023/09/21 05:43:18;;;;;;;4.65;1.92;;;;;;;17.94;100.00;99612.38;5049990;28;20045;-53
2023/09/21 05:45:46;;;;;;;5.55;1.80;;;;;;;17.93;100.00;99613.41;5050038;28;20048;-55
2023/09/21 05:48:17;;;;;;;4.13;1.80;;;;;;;17.93;100.00;99613.41;5050003;28;20527;-55
2023/09/21 05:50:46;;;;;;;5.15;1.95;;;;;;;18.04;100.00;99610.31;5048466;28;20446;-55
2023/09/21 05:53:15;;;;;;;10.35;2.17;;;;;;;18.01;100.00;99616.00;5049770;28;20049;-54
2023/09/21 05:55:44;;;;;;;8.98;2.10;;;;;;;17.92;100.00;99594.97;5048599;28;20048;-53
2023/09/21 05:58:12;;;;;;;5.60;1.83;;;;;;;17.93;100.00;99594.78;5049176;28;20041;-54
2023/09/21 06:00:41;;;;;;;6.20;2.00;;;;;;;17.98;100.00;99592.41;5049386;28;20158;-54
2023/09/21 06:03:09;;;;;;;5.07;2.10;;;;;;;17.98;100.00;99591.59;5049630;28;20053;-51
2023/09/21 06:05:38;;;;;;;4.93;1.83;;;;;;;18.00;100.00;99582.44;5048081;28;20037;-55
2023/09/21 06:08:06;;;;;;;5.45;1.80;;;;;;;17.96;100.00;99590.97;5049607;28;20504;-54
2023/09/21 06:10:35;;;;;;;4.35;1.95;;;;;;;17.96;100.00;99583.78;5046675;28;20618;-54
2023/09/21 06:13:07;;;;;;;6.22;2.00;;;;;;;17.91;100.00;99578.16;5049616;28;20049;-54
2023/09/21 06:15:37;;;;;;;6.05;2.20;;;;;;;17.95;100.00;99574.16;5049270;28;20049;-55
2023/09/21 06:18:05;;;;;;;5.90;1.95;;;;;;;17.98;100.00;99583.63;5049192;28;20041;-54
2023/09/21 06:20:34;;;;;;;6.07;2.08;;;;;;;17.94;100.00;99574.34;5048820;28;20041;-53
2023/09/21 06:23:06;;;;;;;6.43;2.10;;;;;;;18.00;100.00;99577.09;5049186;28;20500;-53
2023/09/21 06:25:37;;;;;;;4.72;1.92;;;;;;;17.91;100.00;99575.47;5047177;28;20132;-52
2023/09/21 06:28:06;;;;;;;4.45;2.10;;;;;;;17.88;100.00;99576.66;5047776;28;20052;-53
2023/09/21 06:30:34;;;;;;;5.57;1.77;;;;;;;17.89;100.00;99585.50;5049100;28;20241;-53
2023/09/21 06:33:02;;;;;;;7.47;2.58;;;;;;;18.04;100.00;99588.22;5049209;28;20053;-52
2023/09/21 06:35:31;;;;;;;4.20;1.90;;;;;;;18.07;100.00;99587.88;5048529;28;20138;-54
2023/09/21 06:37:59;;;;;;;5.38;1.88;;;;;;;18.03;100.00;99582.06;5048810;28;20088;-52
2023/09/21 06:40:28;;;;;;;5.32;1.95;;;;;;;18.02;100.00;99583.06;5047210;28;20048;-54
2023/09/21 06:42:57;;;;;;;5.90;2.15;;;;;;;17.97;100.00;99584.59;5048747;28;20076;-54
2023/09/21 06:45:31;;;;;;;6.05;2.22;;;;;;;17.99;100.00;99595.91;5049119;28;20491;-52
2023/09/21 06:48:01;;;;;;;10.38;2.15;;;;;;;18.04;100.00;99590.88;5048717;28;20045;-54
2023/09/21 06:50:29;;;;;;;5.97;2.17;;;;;;;18.02;100.00;99601.69;5048279;28;20049;-54
2023/09/21 06:52:58;;;;;;;4.63;2.00;;;;;;;18.01;100.00;99600.06;5048805;28;20052;-55
2023/09/21 06:55:28;;;;;;;4.85;2.00;;;;;;;18.01;100.00;99607.19;5046809;28;20068;-54
2023/09/21 06:57:57;;;;;;;7.85;2.20;;;;;;;17.99;100.00;99599.38;5048442;28;20049;-53
2023/09/21 07:00:25;;;;;;;4.90;2.00;;;;;;;17.95;100.00;99606.06;5048584;28;20531;-53
2023/09/21 07:02:54;;;;;;;7.47;2.50;;;;;;;18.01;100.00;99600.06;5048094;28;20646;-54
2023/09/21 07:05:22;;;;;;;6.53;2.25;;;;;;;17.95;100.00;99602.59;5048191;28;20033;-54
2023/09/21 07:07:50;;;;;;;4.95;2.03;;;;;;;17.87;100.00;99606.94;5048560;28;20129;-54
2023/09/21 07:10:18;;;;;;;4.45;2.17;;;;;;;17.82;100.00;99600.47;5046809;28;20056;-56
2023/09/21 07:12:47;;;;;;;5.53;2.55;;;;;;;17.76;100.00;99606.53;5047715;28;20173;-57
2023/09/21 07:15:18;;;;;;;6.88;2.50;;;;;;;17.72;100.00;99604.22;5048722;28;20139;-56
2023/09/21 07:17:46;;;;;;;7.10;2.45;;;;;;;17.52;100.00;99606.50;5049488;28;20481;-56
2023/09/21 07:20:16;;;;;;;7.68;2.58;;;;;;;17.55;100.00;99605.31;5048322;28;20072;-55
2023/09/21 07:22:44;;;;;;;6.75;2.45;;;;;;;17.52;100.00;99606.50;5051441;28;20049;-56
2023/09/21 07:25:12;;;;;;;7.55;2.45;;;;;;;17.42;100.00;99608.53;5049512;28;20044;-55
2023/09/21 07:27:40;;;;;;;4.35;2.15;;;;;;;17.38;100.00;99613.41;5048417;28;20067;-56
2023/09/21 07:30:09;;;;;;;5.93;2.53;;;;;;;17.36;100.00;99606.59;5048089;28;20041;-55
2023/09/21 07:32:39;;;;;;;6.82;2.50;;;;;;;17.44;100.00;99608.38;5048276;28;20083;-55
2023/09/21 07:35:09;;;;;;;6.18;2.40;;;;;;;17.37;100.00;99609.06;5048162;28;20052;-56
2023/09/21 07:37:37;;;;;;;6.90;2.83;;;;;;;17.42;100.00;99607.72;5048587;28;20622;-55
2023/09/21 07:40:07;;;;;;;5.78;2.28;;;;;;;17.43;100.00;99606.72;5045298;28;20495;-53
2023/09/21 07:42:42;;;;;;;;;;;;;;;17.38;100.00;99608.09;5050525;28;20091;-56
2023/09/21 07:45:10;;;;;;;6.18;2.50;;;;;;;17.42;100.00;99607.72;5066701;28;20345;-54
2023/09/21 07:47:40;;;;;;;5.53;2.55;;;;;;;17.42;100.00;99618.34;5048500;28;20076;-55
2023/09/21 07:50:09;;;;;;;6.35;2.50;;;;;;;17.41;100.00;99612.22;5046915;28;20095;-53
2023/09/21 07:52:37;;;;;;;6.57;2.53;;;;;;;17.37;100.00;99622.38;5048436;28;20049;-55
2023/09/21 07:55:08;;;;;;;6.65;2.40;;;;;;;17.34;100.00;99606.78;5049740;28;20049;-55
2023/09/21 07:57:37;;;;;;;8.80;2.30;;;;;;;17.34;100.00;99612.09;5051045;28;20053;-54
2023/09/21 08:00:09;;;;;;;9.05;2.80;;;;;;;17.32;100.00;99611.41;5050870;28;20052;-55
2023/09/21 08:02:38;;;;;;;7.45;2.92;;;;;;;17.37;100.00;99611.72;5053320;28;20049;-57
2023/09/21 08:05:09;;;;;;;7.18;2.50;;;;;;;17.39;100.00;99604.41;5054339;28;20045;-56
2023/09/21 08:07:38;;;;;;;6.10;3.05;;;;;;;17.38;100.00;99609.91;5054656;28;20059;-56
2023/09/21 08:10:07;;;;;;;5.47;2.85;;;;;;;17.27;100.00;99608.44;5054718;28;20380;-55
2023/09/21 08:12:38;;;;;;;8.02;2.70;;;;;;;17.21;100.00;99615.28;5053541;28;20101;-56
2023/09/21 08:15:11;;;;;;;7.82;2.78;;;;;;;17.23;100.00;99609.78;5053898;28;20069;-56
2023/09/21 08:17:40;;;;;;;7.85;3.15;;;;;;;17.26;100.00;99612.13;5051721;28;20048;-56
2023/09/21 08:20:10;;;;;;;8.95;2.88;;;;;;;17.24;100.00;99611.47;5053406;28;20075;-56
2023/09/21 08:22:39;;;;;;;8.25;2.88;;;;;;;17.22;100.00;99618.78;5052045;28;20107;-54
2023/09/21 08:25:08;;;;;;;9.20;3.17;;;;;;;17.22;100.00;99616.13;5050107;28;20135;-56
2023/09/21 08:27:39;;;;;;;7.95;2.83;;;;;;;17.17;100.00;99613.16;5051357;28;20124;-56
2023/09/21 08:30:09;;;;;;;8.68;3.08;;;;;;;17.16;100.00;99622.94;5051582;28;20049;-54
2023/09/21 08:32:39;;;;;;;5.47;2.97;;;;;;;17.20;100.00;99626.09;5052864;28;20044;-56
2023/09/21 08:35:11;;;;;;;9.73;3.20;;;;;;;17.16;100.00;99638.06;5054244;28;20079;-55
2023/09/21 08:37:42;;;;;;;7.38;3.30;;;;;;;17.10;100.00;99636.94;5053599;28;20507;-57
2023/09/21 08:40:14;;;;;;;7.60;3.20;;;;;;;17.15;100.00;99645.22;5049113;28;20048;-55
2023/09/21 08:42:46;;;;;;;5.60;2.83;;;;;;;17.11;100.00;99645.72;5051417;28;20539;-57
2023/09/21 08:45:15;;;;;;;6.47;2.95;;;;;;;17.11;100.00;99645.72;5050872;28;20460;-55
2023/09/21 08:47:46;;;;;;;9.18;3.17;;;;;;;17.03;100.00;99639.44;5053312;28;20082;-57
2023/09/21 08:50:15;;;;;;;9.13;3.47;;;;;;;16.98;100.00;99636.47;5051089;28;20747;-57
2023/09/21 08:52:45;;;;;;;6.57;3.40;;;;;;;17.00;100.00;99641.59;5051124;28;20098;-57
2023/09/21 08:55:13;;;;;;;6.88;3.10;;;;;;;17.02;100.00;99659.03;5048931;28;20106;-56
2023/09/21 08:57:42;;;;;;;9.55;3.13;;;;;;;17.03;100.00;99660.69;5051006;28;20040;-54
2023/09/21 09:00:11;;;;;;;9.63;3.10;;;;;;;16.91;100.00;99656.75;5050844;28;20135;-55
2023/09/21 09:02:40;;;;;;;7.43;3.25;;;;;;;17.01;100.00;99660.00;5053607;28;20480;-56
2023/09/21 09:05:11;;;;;;;5.85;2.95;;;;;;;17.06;100.00;99664.84;5052961;28;20449;-55
2023/09/21 09:07:42;;;;;;;7.50;3.25;;;;;;;17.09;100.00;99668.97;5050715;28;20037;-55
2023/09/21 09:10:12;;;;;;;7.72;3.30;;;;;;;17.12;100.00;99671.28;5048792;28;20049;-56
2023/09/21 09:12:41;;;;;;;5.60;3.10;;;;;;;17.09;100.00;99679.59;5050437;28;20037;-56
2023/09/21 09:15:10;;;;;;;9.50;3.53;;;;;;;17.08;100.00;99669.97;5050582;28;20061;-55
2023/09/21 09:17:40;;;;;;;8.13;3.40;;;;;;;17.04;100.00;99675.63;5053351;28;20068;-55
2023/09/21 09:20:09;;;;;;;9.35;3.45;;;;;;;17.05;100.00;99671.94;5052000;28;20048;-55
2023/09/21 09:22:38;;;;;;;7.00;3.30;;;;;;;16.99;100.00;99680.63;5050209;28;20581;-55
2023/09/21 09:25:10;;;;;;;8.55;4.05;;;;;;;17.09;100.00;99679.59;5048364;28;20053;-54
2023/09/21 09:27:41;;;;;;;9.63;4.57;;;;;;;17.08;100.00;99672.63;5050218;28;20041;-55
2023/09/21 09:30:13;;;;;;;8.13;3.57;;;;;;;17.10;100.00;99674.13;5050834;28;20052;-56
2023/09/21 09:32:42;;;;;;;6.38;3.38;;;;;;;17.05;100.00;99682.56;5051866;28;20052;-55
2023/09/21 09:35:13;;;;;;;7.50;3.75;;;;;;;17.11;100.00;99675.78;5049841;28;20072;-55
2023/09/21 09:37:43;;;;;;;7.88;3.67;;;;;;;17.11;100.00;99670.47;5050318;28;20503;-56
2023/09/21 09:40:13;;;;;;;12.05;4.07;;;;;;;17.18;100.00;99666.13;5048629;28;20411;-56
2023/09/21 09:42:44;;;;;;;7.93;3.47;;;;;;;17.19;100.00;99661.63;5050374;28;20059;-56
2023/09/21 09:45:18;;;;;;;8.27;3.47;;;;;;;17.23;100.00;99654.97;5049967;28;20049;-56
2023/09/21 09:47:54;;;;;;;8.57;4.13;;;;;;;17.19;100.00;99649.19;5049522;28;20435;-56
2023/09/21 09:50:25;;;;;;;6.75;3.80;;;;;;;17.24;100.00;99653.97;5051954;28;20128;-56
2023/09/21 09:53:03;;;;;;;8.15;3.83;;;;;;;17.29;100.00;99664.91;5052593;28;20060;-56
2023/09/21 09:55:33;;;;;;;6.72;3.63;;;;;;;17.31;100.00;99673.53;5052882;28;20041;-55
2023/09/21 09:58:02;;;;;;;6.50;4.00;;;;;;;17.33;100.00;99679.50;5052572;28;20115;-56
2023/09/21 10:00:33;;;;;;;9.30;4.63;;;;;;;17.32;100.00;99672.53;5052816;28;20040;-56
2023/09/21 10:03:07;;;;;;;8.27;4.40;;;;;;;17.21;100.00;99683.53;5052744;28;20079;-55
2023/09/21 10:05:37;;;;;;;6.63;3.60;;;;;;;17.26;100.00;99681.22;5052056;28;20040;-56
2023/09/21 10:08:07;;;;;;;6.45;3.50;;;;;;;17.19;100.00;99674.91;5049485;28;20045;-55
2023/09/21 10:10:44;;;;;;;5.28;3.40;;;;;;;17.24;100.00;99660.09;5051038;28;20104;-55
2023/09/21 10:13:12;;;;;;;7.85;3.42;;;;;;;17.26;100.00;99661.75;5050003;28;20057;-55
2023/09/21 10:15:43;;;;;;;6.80;3.25;;;;;;;17.23;100.00;99674.41;5049808;28;20136;-56
2023/09/21 10:18:11;;;;;;;6.05;3.40;;;;;;;17.33;100.00;99676.84;5049599;28;20053;-55
2023/09/21 10:20:41;;;;;;;5.25;3.10;;;;;;;17.32;100.00;99674.38;5049262;28;20045;-56
2023/09/21 10:23:09;;;;;;;6.10;2.90;;;;;;;17.37;100.00;99678.16;5051217;28;20056;-55
2023/09/21 10:25:44;;;;;;;8.32;2.75;;;;;;;17.36;100.00;99679.16;5051628;28;20408;-56
2023/09/21 10:28:41;;;;;;;5.63;2.55;;;;;;;17.36;100.00;99671.19;5047750;28;20434;-55
2023/09/21 10:31:22;;;;;;;5.22;2.28;;;;;;;17.42;100.00;99668.84;5050241;28;20045;-55
2023/09/21 10:34:21;;;;;;;3.80;2.03;;;;;;;17.45;100.00;99668.50;5052225;28;20431;-55
2023/09/21 10:36:51;;;;;;;4.45;2.20;;;;;;;17.45;100.00;99655.19;5047532;28;20056;-55
2023/09/21 10:39:28;;;;;;;4.95;2.17;;;;;;;17.52;100.00;99653.50;5048620;28;20061;-55
2023/09/21 10:42:33;;;;;;;4.55;2.00;;;;;;;17.57;100.00;99661.78;5052086;28;20392;-55
2023/09/21 10:45:09;;;;;;;5.45;2.30;;;;;;;17.53;100.00;99666.63;5051397;28;20056;-56
2023/09/21 10:47:41;;;;;;;5.75;2.30;;;;;;;17.58;100.00;99655.47;5048232;28;20041;-56
2023/09/21 10:50:12;;;;;;;4.38;2.25;;;;;;;17.58;100.00;99652.81;5048179;28;20499;-56
2023/09/21 10:52:41;;;;;;;4.47;2.08;;;;;;;17.61;100.00;99657.78;5048408;28;20041;-56
2023/09/21 10:55:12;;;;;;;4.20;2.35;;;;;;;17.56;100.00;99641.50;5046619;28;20782;-55
2023/09/21 10:57:43;;;;;;;5.53;2.15;;;;;;;17.72;100.00;99646.75;5050630;28;20053;-55
2023/09/21 11:00:16;;;;;;;4.50;2.35;;;;;;;17.87;100.00;99638.00;5048184;28;20067;-56
2023/09/21 11:02:46;;;;;;;4.28;2.22;;;;;;;18.06;100.00;99629.59;5048181;28;20060;-55
2023/09/21 11:05:17;;;;;;;5.68;2.55;;;;;;;18.06;100.00;99624.28;5046649;28;20110;-56
2023/09/21 11:07:48;;;;;;;6.18;2.40;;;;;;;18.08;100.00;99632.91;5051428;28;20037;-56
2023/09/21 11:10:16;;;;;;;6.65;2.70;;;;;;;18.16;100.00;99632.03;5049343;28;20045;-56
2023/09/21 11:12:48;;;;;;;6.00;2.63;;;;;;;18.27;100.00;99627.25;5048097;28;20131;-56
2023/09/21 11:15:17;;;;;;;5.40;2.50;;;;;;;18.31;100.00;99624.09;5050271;28;20049;-56
2023/09/21 11:17:47;;;;;;;6.10;3.10;;;;;;;18.34;100.00;99620.22;5051302;28;20477;-56
2023/09/21 11:20:19;;;;;;;5.63;2.78;;;;;;;18.42;100.00;99613.00;5047793;28;20118;-56
2023/09/21 11:22:49;;;;;;;;;;;;;;;18.50;100.00;99616.56;5048881;28;20045;-55
2023/09/21 11:25:20;;;;;;;5.47;2.80;;;;;;;18.52;100.00;99622.56;5051406;28;19928;-56
2023/09/21 11:27:51;;;;;;;6.07;3.40;;;;;;;18.61;100.00;99615.31;5049326;28;20064;-56
2023/09/21 11:30:22;;;;;;;6.50;3.03;;;;;;;18.60;100.00;99614.47;5047738;28;20449;-56
2023/09/21 11:32:54;;;;;;;5.43;2.97;;;;;;;18.69;100.00;99609.88;5050625;28;20122;-56
2023/09/21 11:35:23;;;;;;;7.85;3.40;;;;;;;18.70;100.00;99608.88;5047081;28;20049;-55
2023/09/21 11:37:52;;;;;;;6.80;3.60;;;;;;;18.73;100.00;99603.19;5050769;28;20106;-55
2023/09/21 11:40:22;;;;;;;6.57;3.42;;;;;;;18.75;100.00;99594.00;5054216;28;20067;-55